Time;durP1;ratioP1;P1;durP2;ratioP2;P2;SDS_P1;SDS_P2;PMS_P1;PMS_P2;Temp;Humidity;BMP_temperature;BMP_pressure;BME280_temperature;BME280_humidity;BME280_pressure;Samples;Min_cycle;Max_cycle;Signal;HPM_P1;HPM_P2
2023/01/18 00:01:52;;;;;;;;;;;;;;;21.04;36.56;99086.84;7259084;19;153452;-61
2023/01/18 00:04:19;;;;;;;;;;;;;;;21.06;36.47;99090.94;7240395;19;154851;-61
2023/01/18 00:06:46;;;;;;;;;;;;;;;21.08;36.46;99099.81;7258142;19;153749;-63
2023/01/18 00:09:13;;;;;;;;;;;;;;;21.03;36.17;99096.47;7261265;19;153170;-63
2023/01/18 00:11:40;;;;;;;;;;;;;;;21.05;36.16;99099.72;7260313;19;154642;-64
2023/01/18 00:14:09;;;;;;;;;;;;;;;21.04;36.62;99086.84;7258909;19;154461;-63
2023/01/18 00:16:38;;;;;;;;;;;;;;;21.02;36.62;99083.59;7260908;19;153437;-61
2023/01/18 00:19:11;;;;;;;;;;;;;;;20.94;36.81;99078.94;7254110;19;153936;-56
2023/01/18 00:21:39;;;;;;;;;;;;;;;20.90;36.51;99080.81;7257125;19;153163;-57
2023/01/18 00:24:09;;;;;;;;;;;;;;;20.85;36.92;99079.06;7259778;19;153791;-56
2023/01/18 00:26:36;;;;;;;;;;;;;;;20.83;36.66;99085.06;7256925;19;153637;-56
2023/01/18 00:29:03;;;;;;;;;;;;;;;20.80;37.00;99076.53;7264737;19;153771;-56
2023/01/18 00:31:31;;;;;;;;;;;;;;;20.76;37.18;99072.78;7259671;19;153250;-56
2023/01/18 00:33:58;;;;;;;;;;;;;;;20.71;36.64;99085.09;7243469;19;154124;-57
2023/01/18 00:36:25;;;;;;;;;;;;;;;20.68;37.23;99091.41;7253916;19;153641;-56
2023/01/18 00:38:52;;;;;;;;;;;;;;;20.65;36.61;99086.50;7255250;19;152978;-56
2023/01/18 00:41:20;;;;;;;;;;;;;;;20.63;37.04;99094.44;7256863;19;155117;-57
2023/01/18 00:43:47;;;;;;;;;;;;;;;20.58;37.14;99091.88;7253770;19;153727;-54
2023/01/18 00:46:16;;;;;;;;;;;;;;;20.57;37.44;99090.28;7257140;19;153760;-55
2023/01/18 00:48:43;;;;;;;;;;;;;;;20.52;37.37;99090.50;7259351;19;154309;-56
2023/01/18 00:51:11;;;;;;;;;;;;;;;20.51;37.14;99083.25;7259084;19;154226;-53
2023/01/18 00:53:38;;;;;;;;;;;;;;;20.49;37.35;99084.81;7257528;19;156385;-54
2023/01/18 00:56:07;;;;;;;;;;;;;;;20.45;37.31;99078.22;7257877;19;155240;-54
2023/01/18 00:58:36;;;;;;;;;;;;;;;20.41;37.44;99078.94;7257814;19;154185;-56
2023/01/18 01:01:04;;;;;;;;;;;;;;;20.41;37.25;99078.13;7263484;19;153586;-54
2023/01/18 01:08:49;;;;;;;;;;;;;;;20.35;37.74;99079.56;7258804;19;154218;-55
2023/01/18 01:11:16;;;;;;;;;;;;;;;20.33;37.93;99079.91;7257593;19;154875;-56
2023/01/18 01:26:46;;;;;;;;;;;;;;;20.14;37.96;99084.44;7260046;19;154456;-63
2023/01/18 01:29:13;;;;;;;;;;;;;;;20.11;38.10;99083.16;7264151;19;153301;-63
2023/01/18 01:31:39;;;;;;;;;;;;;;;20.06;37.94;99088.19;7265835;19;153569;-63
2023/01/18 01:34:06;;;;;;;;;;;;;;;20.05;38.08;99094.94;7264498;19;154585;-62
2023/01/18 01:36:33;;;;;;;;;;;;;;;19.95;38.22;99096.22;7247984;19;154555;-61
2023/01/18 01:39:00;;;;;;;;;;;;;;;19.89;38.40;99104.06;7263129;19;153521;-62
2023/01/18 01:41:29;;;;;;;;;;;;;;;19.85;38.00;99111.53;7259110;19;153851;-62
2023/01/18 01:43:57;;;;;;;;;;;;;;;19.87;37.91;99113.97;7260014;19;154569;-62
2023/01/18 01:46:31;;;;;;;;;;;;;;;19.81;37.95;99113.38;7269402;19;153392;-60
2023/01/18 01:48:59;;;;;;;;;;;;;;;19.74;38.15;99113.16;7265198;19;154339;-59
2023/01/18 01:51:27;;;;;;;;;;;;;;;19.71;37.80;99111.06;7262625;19;154333;-60
2023/01/18 01:53:57;;;;;;;;;;;;;;;19.64;38.06;99112.78;7261510;19;153467;-60
2023/01/18 01:56:24;;;;;;;;;;;;;;;19.60;37.89;99117.44;7261734;19;153298;-60
2023/01/18 01:58:55;;;;;;;;;;;;;;;19.57;37.84;99123.75;7263913;19;153592;-60
2023/01/18 02:01:22;;;;;;;;;;;;;;;19.50;38.22;99127.09;7264257;19;154183;-59
2023/01/18 02:03:49;;;;;;;;;;;;;;;19.46;37.97;99126.97;7265546;19;154287;-61
2023/01/18 02:08:58;;;;;;;;;;;;;;;19.38;37.97;99130.66;7268376;19;152967;-60
2023/01/18 02:11:25;;;;;;;;;;;;;;;19.35;37.89;99127.75;7264159;19;154761;-60
2023/01/18 02:13:53;;;;;;;;;;;;;;;19.29;37.88;99127.13;7266812;19;154199;-60
2023/01/18 02:16:21;;;;;;;;;;;;;;;19.27;38.07;99126.63;7265075;19;154057;-60
2023/01/18 02:18:58;;;;;;;;;;;;;;;19.25;37.83;99123.38;7263482;19;153935;-61
2023/01/18 02:21:33;;;;;;;;;;;;;;;19.18;38.12;99122.28;7262226;19;154968;-61
2023/01/18 02:24:11;;;;;;;;;;;;;;;19.15;38.41;99129.41;7262434;19;153319;-60
2023/01/18 02:26:49;;;;;;;;;;;;;;;19.12;38.23;99137.66;7263265;19;155687;-60
2023/01/18 02:29:17;;;;;;;;;;;;;;;19.07;38.65;99133.94;7262571;19;155788;-61
2023/01/18 02:31:50;;;;;;;;;;;;;;;19.07;38.72;99139.53;7258734;19;154306;-60
2023/01/18 02:34:24;;;;;;;;;;;;;;;19.07;38.95;99127.50;7262292;19;153808;-61
2023/01/18 02:37:00;;;;;;;;;;;;;;;19.05;38.98;99121.41;7261196;19;153976;-61
2023/01/18 02:39:30;;;;;;;;;;;;;;;19.02;38.93;99122.13;7260492;19;153748;-61
2023/01/18 02:47:18;;;;;;;;;;;;;;;18.85;39.03;99130.66;7261277;19;153999;-60
2023/01/18 02:49:44;;;;;;;;;;;;;;;18.80;39.22;99126.09;7258953;19;153174;-60
2023/01/18 02:52:21;;;;;;;;;;;;;;;18.79;39.21;99126.41;7263097;19;155567;-61
2023/01/18 02:54:48;;;;;;;;;;;;;;;18.77;39.24;99120.34;7268380;19;154632;-61
2023/01/18 02:57:16;;;;;;;;;;;;;;;18.71;38.98;99130.94;7264141;19;153266;-60
2023/01/18 02:59:49;;;;;;;;;;;;;;;18.67;39.00;99129.94;7259615;19;154961;-60
2023/01/18 03:02:18;;;;;;;;;;;;;;;18.64;38.86;99130.63;7263177;19;155613;-61
2023/01/18 03:07:25;;;;;;;;;;;;;;;18.63;38.72;99134.59;7263755;19;153971;-60
2023/01/18 03:09:53;;;;;;;;;;;;;;;18.54;39.19;99131.03;7258221;19;154840;-61
2023/01/18 03:12:27;;;;;;;;;;;;;;;18.50;39.21;99127.25;7264078;19;153894;-61
2023/01/18 03:14:54;;;;;;;;;;;;;;;18.51;39.10;99137.28;7268215;19;153262;-60
2023/01/18 03:17:27;;;;;;;;;;;;;;;18.45;38.97;99127.44;7263128;19;153574;-61
2023/01/18 03:25:12;;;;;;;;;;;;;;;18.32;39.32;99134.94;7257876;19;155114;-59
2023/01/18 03:35:32;;;;;;;;;;;;;;;18.21;39.41;99122.50;7264928;19;154718;-61
2023/01/18 03:37:59;;;;;;;;;;;;;;;18.18;39.54;99125.97;7268812;19;154054;-60
2023/01/18 03:40:28;;;;;;;;;;;;;;;18.11;39.36;99137.69;7261726;19;154382;-60
2023/01/18 03:42:58;;;;;;;;;;;;;;;18.10;39.50;99132.41;7261534;19;154257;-60
2023/01/18 03:45:28;;;;;;;;;;;;;;;18.07;39.54;99128.34;7261079;19;152916;-61
2023/01/18 03:47:55;;;;;;;;;;;;;;;18.05;39.65;99124.22;7260462;19;153143;-60
2023/01/18 03:50:24;;;;;;;;;;;;;;;18.01;39.49;99123.25;7260045;19;154950;-60
2023/01/18 03:52:54;;;;;;;;;;;;;;;17.98;39.42;99129.53;7260893;19;154717;-61
2023/01/18 03:55:26;;;;;;;;;;;;;;;17.97;39.88;99131.50;7261236;19;154037;-60
2023/01/18 03:57:53;;;;;;;;;;;;;;;17.94;40.00;99131.34;7260701;19;154197;-60
2023/01/18 04:00:20;;;;;;;;;;;;;;;17.89;40.16;99142.72;7266925;19;153328;-60
2023/01/18 04:02:48;;;;;;;;;;;;;;;17.87;40.10;99137.44;7262746;19;154216;-60
2023/01/18 04:05:15;;;;;;;;;;;;;;;17.85;40.17;99136.16;7258269;19;154928;-60
2023/01/18 04:07:42;;;;;;;;;;;;;;;17.81;40.00;99135.97;7262902;19;154720;-60
2023/01/18 04:10:10;;;;;;;;;;;;;;;17.79;40.20;99138.31;7258860;19;154243;-60
2023/01/18 04:12:37;;;;;;;;;;;;;;;17.77;40.23;99140.59;7263280;19;153922;-62
2023/01/18 04:15:04;;;;;;;;;;;;;;;17.70;40.42;99134.72;7261491;19;154449;-60
2023/01/18 04:17:31;;;;;;;;;;;;;;;17.70;40.49;99140.31;7262390;19;153258;-60
2023/01/18 04:19:57;;;;;;;;;;;;;;;17.70;40.53;99143.94;7257541;19;155369;-61
2023/01/18 04:22:24;;;;;;;;;;;;;;;17.67;40.56;99147.38;7269930;19;154147;-61
2023/01/18 04:24:51;;;;;;;;;;;;;;;17.61;40.85;99145.94;7259498;19;154179;-62
2023/01/18 04:27:18;;;;;;;;;;;;;;;17.66;40.56;99144.94;7261191;19;153992;-62
2023/01/18 04:29:45;;;;;;;;;;;;;;;17.60;41.07;99143.47;7257186;19;153715;-62
2023/01/18 04:32:12;;;;;;;;;;;;;;;17.56;40.80;99142.44;7260971;19;154160;-61
2023/01/18 04:34:39;;;;;;;;;;;;;;;17.52;40.77;99133.09;7259413;19;155624;-61
2023/01/18 04:37:06;;;;;;;;;;;;;;;17.53;40.73;99134.75;7260030;19;153333;-61
2023/01/18 04:39:32;;;;;;;;;;;;;;;17.50;41.13;99139.00;7256060;19;153469;-61
2023/01/18 04:41:59;;;;;;;;;;;;;;;17.46;40.81;99137.22;7259784;19;153422;-60
2023/01/18 04:44:26;;;;;;;;;;;;;;;17.43;40.96;99138.72;7266555;19;153697;-61
2023/01/18 04:46:53;;;;;;;;;;;;;;;17.42;41.22;99145.44;7257179;19;153766;-61
2023/01/18 04:49:20;;;;;;;;;;;;;;;17.41;41.09;99142.97;7257005;19;154158;-61
2023/01/18 04:51:46;;;;;;;;;;;;;;;17.37;41.04;99147.56;7259462;19;153854;-61
2023/01/18 04:54:15;;;;;;;;;;;;;;;17.32;41.16;99157.78;7259466;19;152910;-60
2023/01/18 04:56:42;;;;;;;;;;;;;;;17.30;40.87;99151.72;7259187;19;154226;-61
2023/01/18 04:59:12;;;;;;;;;;;;;;;17.30;41.25;99148.91;7256412;19;153461;-61
2023/01/18 05:01:39;;;;;;;;;;;;;;;17.24;41.32;99150.22;7267350;19;153413;-61
2023/01/18 05:04:06;;;;;;;;;;;;;;;17.23;41.22;99154.16;7264735;19;154678;-66
2023/01/18 05:06:33;;;;;;;;;;;;;;;17.18;41.44;99161.88;7274182;19;153852;-61
2023/01/18 05:08:59;;;;;;;;;;;;;;;17.20;41.27;99159.59;7266048;19;155072;-61
2023/01/18 05:11:26;;;;;;;;;;;;;;;17.17;41.13;99166.63;7266629;19;154304;-61
2023/01/18 05:13:53;;;;;;;;;;;;;;;17.17;41.44;99166.63;7269451;19;154398;-61
2023/01/18 05:16:21;;;;;;;;;;;;;;;17.11;41.41;99167.16;7266605;19;154173;-60
2023/01/18 05:18:48;;;;;;;;;;;;;;;17.09;41.25;99163.84;7267304;19;152878;-60
2023/01/18 05:21:15;;;;;;;;;;;;;;;17.11;41.44;99165.19;7268289;19;155172;-60
2023/01/18 05:23:42;;;;;;;;;;;;;;;17.13;41.72;99150.88;7264717;19;153465;-60
2023/01/18 05:26:13;;;;;;;;;;;;;;;17.18;41.58;99156.31;7272466;19;153746;-60
2023/01/18 05:28:41;;;;;;;;;;;;;;;17.26;41.80;99169.44;7265626;19;155434;-60
2023/01/18 05:31:08;;;;;;;;;;;;;;;17.31;41.57;99161.69;7264380;19;154135;-61
2023/01/18 05:33:35;;;;;;;;;;;;;;;17.38;41.64;99164.00;7266471;19;154106;-61
2023/01/18 05:36:02;;;;;;;;;;;;;;;17.44;41.89;99167.44;7263375;19;153528;-61
2023/01/18 05:38:29;;;;;;;;;;;;;;;17.49;41.69;99167.28;7265386;19;153737;-61
2023/01/18 05:40:56;;;;;;;;;;;;;;;17.51;41.75;99162.16;7262483;19;153560;-61
2023/01/18 05:43:24;;;;;;;;;;;;;;;17.54;41.94;99158.69;7267351;19;153583;-60
2023/01/18 05:45:51;;;;;;;;;;;;;;;17.58;42.20;99165.28;7264401;19;154067;-60
2023/01/18 05:48:18;;;;;;;;;;;;;;;17.62;42.32;99172.72;7274084;19;153757;-60
2023/01/18 05:50:47;;;;;;;;;;;;;;;17.66;42.48;99176.47;7265528;19;154259;-60
2023/01/18 05:53:15;;;;;;;;;;;;;;;17.72;42.52;99177.09;7263735;19;153777;-60
2023/01/18 05:55:43;;;;;;;;;;;;;;;17.76;42.47;99176.09;7264920;19;153912;-60
2023/01/18 05:58:10;;;;;;;;;;;;;;;17.80;42.22;99172.66;7265243;19;153895;-60
2023/01/18 06:00:37;;;;;;;;;;;;;;;17.85;41.81;99183.66;7265171;19;153958;-61
2023/01/18 06:03:04;;;;;;;;;;;;;;;17.90;41.98;99189.06;7263546;19;153866;-60
2023/01/18 06:05:31;;;;;;;;;;;;;;;17.94;41.94;99187.22;7264025;19;153485;-61
2023/01/18 06:07:58;;;;;;;;;;;;;;;18.00;42.08;99188.66;7266473;19;153016;-61
2023/01/18 06:10:25;;;;;;;;;;;;;;;18.05;41.88;99182.91;7269804;19;154759;-60
2023/01/18 06:12:52;;;;;;;;;;;;;;;18.08;41.51;99180.25;7263618;19;154486;-61
2023/01/18 06:15:18;;;;;;;;;;;;;;;18.13;42.01;99177.28;7264536;19;153000;-60
2023/01/18 06:17:45;;;;;;;;;;;;;;;18.18;41.99;99179.06;7266521;19;154471;-60
2023/01/18 06:20:13;;;;;;;;;;;;;;;18.22;41.81;99180.84;7263576;19;153461;-60
2023/01/18 06:22:39;;;;;;;;;;;;;;;18.28;41.77;99187.06;7262514;19;155155;-59
2023/01/18 06:25:08;;;;;;;;;;;;;;;18.34;41.45;99182.13;7266063;19;154386;-60
2023/01/18 06:27:37;;;;;;;;;;;;;;;18.38;41.67;99195.09;7264144;19;153573;-60
2023/01/18 06:30:05;;;;;;;;;;;;;;;18.44;41.18;99192.94;7264835;19;154245;-60
2023/01/18 06:32:32;;;;;;;;;;;;;;;18.48;41.50;99185.50;7273776;19;153392;-64
2023/01/18 06:34:59;;;;;;;;;;;;;;;18.52;41.55;99189.25;7266666;19;154382;-63
2023/01/18 06:37:26;;;;;;;;;;;;;;;18.56;41.45;99191.06;7265462;19;153331;-63
2023/01/18 06:39:53;;;;;;;;;;;;;;;18.60;41.31;99192.03;7265483;19;154196;-62
2023/01/18 06:42:20;;;;;;;;;;;;;;;18.65;41.08;99200.25;7264163;19;154891;-61
2023/01/18 06:44:47;;;;;;;;;;;;;;;18.71;41.30;99197.25;7262045;19;153386;-61
2023/01/18 06:47:18;;;;;;;;;;;;;;;18.74;41.06;99208.56;7264467;19;153928;-60
2023/01/18 06:49:46;;;;;;;;;;;;;;;18.79;40.82;99208.38;7261020;19;156156;-60
2023/01/18 06:52:14;;;;;;;;;;;;;;;18.84;41.16;99218.56;7263577;19;154206;-60
2023/01/18 06:54:41;;;;;;;;;;;;;;;18.88;41.02;99222.31;7266522;19;153564;-60
2023/01/18 06:57:08;;;;;;;;;;;;;;;18.92;41.74;99218.50;7262094;19;153117;-61
2023/01/18 06:59:35;;;;;;;;;;;;;;;18.96;41.25;99225.03;7263020;19;152920;-63
2023/01/18 07:02:03;;;;;;;;;;;;;;;19.00;41.28;99225.19;7263219;19;154423;-60
2023/01/18 07:04:31;;;;;;;;;;;;;;;19.05;41.12;99230.56;7264028;19;152995;-60
2023/01/18 07:07:01;;;;;;;;;;;;;;;19.08;41.13;99232.69;7266333;19;154627;-59
2023/01/18 07:09:28;;;;;;;;;;;;;;;19.12;40.95;99233.66;7262177;19;153627;-60
2023/01/18 07:11:55;;;;;;;;;;;;;;;19.16;41.20;99236.59;7261999;19;154161;-61
2023/01/18 07:14:21;;;;;;;;;;;;;;;19.19;40.70;99241.50;7263612;19;153855;-60
2023/01/18 07:16:48;;;;;;;;;;;;;;;19.23;40.63;99242.47;7270349;19;153560;-61
2023/01/18 07:19:15;;;;;;;;;;;;;;;19.27;41.19;99255.44;7263012;19;153653;-60
2023/01/18 07:21:42;;;;;;;;;;;;;;;19.32;40.73;99257.22;7262365;19;154706;-61
2023/01/18 07:24:09;;;;;;;;;;;;;;;19.34;40.61;99255.72;7259755;19;153213;-60
2023/01/18 07:26:36;;;;;;;;;;;;;;;19.38;40.38;99261.47;7260553;19;153418;-60
2023/01/18 07:29:03;;;;;;;;;;;;;;;19.41;39.97;99260.78;7262942;19;153900;-59
2023/01/18 07:31:30;;;;;;;;;;;;;;;19.43;39.79;99250.91;7259940;19;153300;-60
2023/01/18 07:33:58;;;;;;;;;;;;;;;19.46;39.72;99252.19;7265506;19;153828;-60
2023/01/18 07:36:25;;;;;;;;;;;;;;;19.49;39.57;99260.72;7270051;19;153759;-59
2023/01/18 07:38:52;;;;;;;;;;;;;;;19.51;39.04;99258.41;7263906;19;153911;-59
2023/01/18 07:41:19;;;;;;;;;;;;;;;19.53;38.96;99270.06;7260046;19;153965;-60
2023/01/18 07:43:46;;;;;;;;;;;;;;;19.15;33.53;99274.97;7263715;19;155243;-61
2023/01/18 07:46:15;;;;;;;;;;;;;;;19.13;35.66;99273.66;7263157;19;153664;-60
2023/01/18 07:48:43;;;;;;;;;;;;;;;19.27;35.38;99269.44;7263563;19;154367;-60
2023/01/18 07:51:10;;;;;;;;;;;;;;;19.31;35.40;99261.16;7262864;19;154005;-60
2023/01/18 07:53:37;;;;;;;;;;;;;;;19.33;35.65;99278.47;7262688;19;154695;-59
2023/01/18 07:56:06;;;;;;;;;;;;;;;19.36;35.39;99274.97;7260291;19;155760;-61
2023/01/18 07:58:34;;;;;;;;;;;;;;;19.38;35.47;99279.09;7269850;19;154172;-59
2023/01/18 08:01:02;;;;;;;;;;;;;;;19.40;35.69;99278.72;7257887;19;152834;-59
2023/01/18 08:03:29;;;;;;;;;;;;;;;19.43;35.37;99289.25;7264748;19;153894;-60
2023/01/18 08:05:58;;;;;;;;;;;;;;;19.45;35.83;99289.75;7262188;19;153516;-59
2023/01/18 08:08:27;;;;;;;;;;;;;;;19.48;35.66;99291.91;7262482;19;157801;-59
2023/01/18 08:10:55;;;;;;;;;;;;;;;19.50;35.80;99298.78;7258912;19;154194;-62
2023/01/18 08:13:23;;;;;;;;;;;;;;;19.51;36.19;99294.81;7253448;19;153918;-59
2023/01/18 08:15:50;;;;;;;;;;;;;;;19.52;36.31;99293.66;7261869;19;153910;-61
2023/01/18 08:18:17;;;;;;;;;;;;;;;19.53;36.39;99295.28;7264483;19;153335;-61
2023/01/18 08:20:45;;;;;;;;;;;;;;;19.57;36.40;99300.22;7268856;19;153755;-60
2023/01/18 08:23:12;;;;;;;;;;;;;;;19.58;36.24;99296.28;7260429;19;152988;-60
2023/01/18 08:25:39;;;;;;;;;;;;;;;19.59;36.02;99306.28;7262071;19;153629;-59
2023/01/18 08:28:06;;;;;;;;;;;;;;;19.61;36.46;99298.38;7259357;19;153306;-59
2023/01/18 08:30:35;;;;;;;;;;;;;;;19.59;35.88;99307.13;7258733;19;153915;-58
2023/01/18 08:33:02;;;;;;;;;;;;;;;19.66;36.25;99313.00;7262583;19;152975;-56
2023/01/18 08:35:31;;;;;;;;;;;;;;;19.70;36.32;99327.16;7260576;19;154772;-57
2023/01/18 08:37:58;;;;;;;;;;;;;;;19.72;36.67;99324.81;7259940;19;153514;-59
2023/01/18 08:40:26;;;;;;;;;;;;;;;19.72;36.24;99330.41;7257021;19;153857;-60
2023/01/18 08:42:57;;;;;;;;;;;;;;;19.73;35.92;99335.69;7267950;19;153252;-59
2023/01/18 08:45:25;;;;;;;;;;;;;;;19.76;35.73;99348.19;7258850;19;154697;-59
2023/01/18 08:48:01;;;;;;;;;;;;;;;19.76;35.74;99349.00;7259697;19;153617;-60
2023/01/18 08:50:28;;;;;;;;;;;;;;;19.78;36.04;99351.47;7254329;19;154364;-59
2023/01/18 08:52:58;;;;;;;;;;;;;;;19.79;35.91;99361.53;7258990;19;153837;-59
2023/01/18 08:55:26;;;;;;;;;;;;;;;19.81;35.58;99367.59;7258215;19;154200;-59
2023/01/18 08:57:53;;;;;;;;;;;;;;;19.81;35.91;99360.00;7262676;19;154579;-59
2023/01/18 09:00:22;;;;;;;;;;;;;;;19.82;35.92;99369.22;7257415;19;153356;-60
2023/01/18 09:02:50;;;;;;;;;;;;;;;19.83;35.39;99368.06;7260835;19;156850;-59
2023/01/18 09:05:17;;;;;;;;;;;;;;;19.85;36.00;99372.16;7267918;19;154761;-60
2023/01/18 09:07:44;;;;;;;;;;;;;;;19.85;35.43;99372.16;7257433;19;154717;-60
2023/01/18 09:10:12;;;;;;;;;;;;;;;19.88;35.35;99365.06;7256409;19;154168;-60
2023/01/18 09:12:39;;;;;;;;;;;;;;;19.88;35.58;99359.47;7258933;19;153750;-60
2023/01/18 09:15:07;;;;;;;;;;;;;;;19.89;35.18;99361.13;7258745;19;153586;-60
2023/01/18 09:17:34;;;;;;;;;;;;;;;19.88;35.37;99363.09;7260456;19;153693;-60
2023/01/18 09:20:02;;;;;;;;;;;;;;;19.90;36.89;99363.56;7257547;19;153233;-60
2023/01/18 09:22:28;;;;;;;;;;;;;;;19.94;37.54;99361.69;7255093;19;154158;-59
2023/01/18 09:24:56;;;;;;;;;;;;;;;20.04;37.04;99365.25;7266591;19;153724;-59
2023/01/18 09:27:23;;;;;;;;;;;;;;;20.13;36.55;99369.63;7236688;19;156227;-59
2023/01/18 09:29:51;;;;;;;;;;;;;;;20.14;36.77;99365.66;7256228;19;154214;-59
2023/01/18 09:32:18;;;;;;;;;;;;;;;20.15;36.54;99364.50;7258207;19;153698;-60
2023/01/18 09:34:49;;;;;;;;;;;;;;;20.16;36.38;99368.13;7253852;19;154885;-60
2023/01/18 09:37:17;;;;;;;;;;;;;;;20.16;36.55;99373.72;7257968;19;154052;-59
2023/01/18 09:39:45;;;;;;;;;;;;;;;20.15;36.48;99381.31;7254384;19;155147;-60
2023/01/18 09:42:20;;;;;;;;;;;;;;;20.16;36.09;99379.34;7251740;19;153824;-59
2023/01/18 09:44:50;;;;;;;;;;;;;;;20.15;35.89;99375.72;7257196;19;154638;-60
2023/01/18 09:47:20;;;;;;;;;;;;;;;20.12;35.81;99376.41;7266442;19;153600;-60
2023/01/18 09:49:55;;;;;;;;;;;;;;;20.11;35.63;99379.56;7264663;19;154101;-60
2023/01/18 09:52:30;;;;;;;;;;;;;;;20.08;35.91;99383.84;7263931;19;152828;-59
2023/01/18 09:55:09;;;;;;;;;;;;;;;20.06;35.42;99389.00;7261324;19;153870;-59
2023/01/18 09:57:44;;;;;;;;;;;;;;;20.03;35.65;99392.50;7265148;19;153563;-59
2023/01/18 10:00:18;;;;;;;;;;;;;;;20.00;35.65;99404.38;7264658;19;153896;-59
2023/01/18 10:02:47;;;;;;;;;;;;;;;20.00;35.23;99409.97;7262054;19;153709;-59
2023/01/18 10:05:19;;;;;;;;;;;;;;;19.96;35.45;99409.84;7266252;19;153667;-59
2023/01/18 10:07:53;;;;;;;;;;;;;;;19.92;35.07;99413.69;7263084;19;153408;-59
2023/01/18 10:10:21;;;;;;;;;;;;;;;19.88;35.00;99416.34;7269940;19;154709;-59
2023/01/18 10:12:53;;;;;;;;;;;;;;;19.86;35.05;99426.25;7263223;19;153280;-60
2023/01/18 10:15:24;;;;;;;;;;;;;;;19.82;34.94;99442.94;7262960;19;154263;-59
2023/01/18 10:17:54;;;;;;;;;;;;;;;19.80;34.73;99433.22;7264215;19;155542;-60
2023/01/18 10:20:22;;;;;;;;;;;;;;;19.74;34.82;99443.81;7262918;19;153654;-60
2023/01/18 10:22:59;;;;;;;;;;;;;;;19.72;34.90;99446.13;7259397;19;154761;-60
2023/01/18 10:25:31;;;;;;;;;;;;;;;19.68;35.01;99453.56;7263651;19;154679;-60
2023/01/18 10:28:05;;;;;;;;;;;;;;;19.65;34.96;99457.06;7260326;19;153782;-62
2023/01/18 10:30:34;;;;;;;;;;;;;;;19.60;34.55;99462.03;7260837;19;154227;-61
2023/01/18 10:33:06;;;;;;;;;;;;;;;19.56;34.68;99467.50;7273057;19;154259;-61
2023/01/18 10:35:34;;;;;;;;;;;;;;;19.53;35.03;99465.38;7263635;19;153586;-62
2023/01/18 10:38:04;;;;;;;;;;;;;;;19.51;35.07;99473.28;7262629;19;154290;-59
2023/01/18 10:40:32;;;;;;;;;;;;;;;19.47;34.96;99469.50;7260156;19;154701;-62
2023/01/18 10:43:03;;;;;;;;;;;;;;;19.44;35.16;99470.19;7258577;19;155453;-60
2023/01/18 10:45:32;;;;;;;;;;;;;;;19.40;34.84;99466.38;7261578;19;153630;-60
2023/01/18 10:48:08;;;;;;;;;;;;;;;19.35;35.40;99470.19;7261801;19;153329;-60
2023/01/18 10:50:36;;;;;;;;;;;;;;;19.34;35.05;99473.34;7261646;19;156341;-60
2023/01/18 10:53:13;;;;;;;;;;;;;;;19.31;35.26;99476.78;7262405;19;152795;-60
2023/01/18 10:55:40;;;;;;;;;;;;;;;19.26;35.39;99469.41;7270632;19;154941;-60
2023/01/18 10:58:12;;;;;;;;;;;;;;;19.21;35.35;99478.00;7260400;19;152994;-59
2023/01/18 11:00:40;;;;;;;;;;;;;;;19.16;35.26;99482.97;7263172;19;153554;-60
2023/01/18 11:03:12;;;;;;;;;;;;;;;19.16;35.37;99488.56;7259645;19;154113;-58
2023/01/18 11:05:43;;;;;;;;;;;;;;;19.16;35.34;99499.75;7262071;19;152959;-58
2023/01/18 11:08:21;;;;;;;;;;;;;;;19.15;35.55;99484.13;7264294;19;153632;-59
2023/01/18 11:10:56;;;;;;;;;;;;;;;19.14;35.37;99485.25;7258301;19;154128;-60
2023/01/18 11:13:24;;;;;;;;;;;;;;;19.15;35.65;99484.13;7258750;19;153408;-61
2023/01/18 11:16:01;;;;;;;;;;;;;;;19.17;35.81;99488.22;7263997;19;154226;-60
2023/01/18 11:18:28;;;;;;;;;;;;;;;19.22;35.70;99484.41;7269724;19;155500;-60
2023/01/18 11:20:56;;;;;;;;;;;;;;;19.24;35.96;99484.91;7263333;19;154130;-60
2023/01/18 11:23:36;;;;;;;;;;;;;;;19.27;35.66;99495.44;7257886;19;154040;-60
2023/01/18 11:26:06;;;;;;;;;;;;;;;19.30;36.03;99492.81;7258027;19;152614;-60
2023/01/18 11:28:34;;;;;;;;;;;;;;;19.33;35.92;99499.69;7256895;19;154288;-60
2023/01/18 11:31:11;;;;;;;;;;;;;;;19.37;35.77;99495.06;7257068;19;153476;-60
2023/01/18 11:33:47;;;;;;;;;;;;;;;19.40;35.95;99500.81;7263987;19;153025;-61
2023/01/18 11:36:15;;;;;;;;;;;;;;;19.42;35.68;99501.31;7262351;19;154652;-60
2023/01/18 11:38:42;;;;;;;;;;;;;;;19.45;35.78;99500.66;7263537;19;153830;-61
2023/01/18 11:41:13;;;;;;;;;;;;;;;19.47;35.81;99492.75;7261953;19;154097;-61
2023/01/18 11:43:44;;;;;;;;;;;;;;;19.51;35.58;99499.31;7259152;19;153656;-60
2023/01/18 11:46:20;;;;;;;;;;;;;;;19.54;35.52;99511.81;7262832;19;153898;-60
2023/01/18 11:48:51;;;;;;;;;;;;;;;19.57;35.67;99507.53;7260859;19;154070;-60
2023/01/18 11:51:27;;;;;;;;;;;;;;;19.60;35.92;99510.47;7260093;19;153902;-60
2023/01/18 11:54:03;;;;;;;;;;;;;;;19.61;35.74;99509.31;7258008;19;154745;-60
2023/01/18 11:56:39;;;;;;;;;;;;;;;19.66;35.83;99514.75;7262799;19;155140;-60
2023/01/18 11:59:12;;;;;;;;;;;;;;;19.66;35.98;99511.94;7261066;19;154498;-60
2023/01/18 12:01:49;;;;;;;;;;;;;;;19.71;35.45;99517.34;7266285;19;153491;-60
2023/01/18 12:04:25;;;;;;;;;;;;;;;19.72;35.69;99512.53;7259281;19;155106;-60
2023/01/18 12:07:12;;;;;;;;;;;;;;;19.74;35.71;99515.84;7263335;19;153033;-60
2023/01/18 12:09:49;;;;;;;;;;;;;;;19.76;35.89;99500.31;7256924;19;154826;-61
2023/01/18 12:12:25;;;;;;;;;;;;;;;19.79;35.83;99508.06;7261221;19;154441;-60
2023/01/18 12:15:01;;;;;;;;;;;;;;;19.81;35.53;99510.53;7259548;19;154459;-60
2023/01/18 12:17:35;;;;;;;;;;;;;;;19.84;35.45;99509.88;7261065;19;154272;-60
2023/01/18 12:20:07;;;;;;;;;;;;;;;19.86;35.84;99511.16;7260098;19;155363;-60
2023/01/18 12:22:47;;;;;;;;;;;;;;;19.88;35.52;99505.22;7259079;19;153869;-60
2023/01/18 12:25:20;;;;;;;;;;;;;;;19.90;35.55;99509.31;7264813;19;153665;-61
2023/01/18 12:27:56;;;;;;;;;;;;;;;19.92;35.77;99512.59;7261386;19;153397;-60
2023/01/18 12:30:30;;;;;;;;;;;;;;;19.96;35.83;99524.78;7261029;19;153607;-61
2023/01/18 12:33:06;;;;;;;;;;;;;;;19.97;35.62;99518.03;7259408;19;153297;-60
2023/01/18 12:35:41;;;;;;;;;;;;;;;19.99;35.45;99526.91;7259758;19;154564;-60
2023/01/18 12:38:11;;;;;;;;;;;;;;;20.03;35.37;99515.03;7261177;19;154159;-60
2023/01/18 12:40:42;;;;;;;;;;;;;;;20.06;35.47;99528.34;7259826;19;153306;-60
2023/01/18 12:43:10;;;;;;;;;;;;;;;20.06;35.50;99531.16;7262055;19;152473;-60
2023/01/18 12:45:38;;;;;;;;;;;;;;;20.08;35.53;99531.66;7262880;19;153927;-61
2023/01/18 12:48:07;;;;;;;;;;;;;;;20.09;35.87;99538.88;7268220;19;154045;-60
2023/01/18 12:50:36;;;;;;;;;;;;;;;20.09;35.54;99539.69;7260534;19;153688;-60
2023/01/18 12:53:08;;;;;;;;;;;;;;;20.11;35.47;99528.16;7260836;19;156195;-60
2023/01/18 12:55:38;;;;;;;;;;;;;;;20.14;35.68;99531.09;7261228;19;153405;-61
2023/01/18 12:58:08;;;;;;;;;;;;;;;20.15;35.28;99545.94;7259284;19;154073;-60
2023/01/18 13:00:37;;;;;;;;;;;;;;;20.15;35.21;99545.94;7258906;19;154036;-61
2023/01/18 13:03:09;;;;;;;;;;;;;;;20.15;35.01;99543.97;7257904;19;154732;-61
2023/01/18 13:05:51;;;;;;;;;;;;;;;20.17;35.51;99549.25;7261284;19;153343;-61
2023/01/18 13:08:26;;;;;;;;;;;;;;;20.17;35.07;99536.00;7257545;19;153003;-60
2023/01/18 13:11:00;;;;;;;;;;;;;;;20.16;35.53;99544.78;7265303;19;154337;-61
2023/01/18 13:13:28;;;;;;;;;;;;;;;20.18;35.30;99553.66;7256426;19;153840;-61
2023/01/18 13:16:04;;;;;;;;;;;;;;;20.17;35.37;99547.22;7260914;19;153328;-60
2023/01/18 13:18:35;;;;;;;;;;;;;;;20.16;35.37;99544.78;7260597;19;153598;-60
2023/01/18 13:21:04;;;;;;;;;;;;;;;20.14;35.24;99553.53;7258820;19;153687;-59
2023/01/18 13:23:41;;;;;;;;;;;;;;;20.14;34.91;99550.72;7265702;19;153468;-60
2023/01/18 13:26:11;;;;;;;;;;;;;;;20.16;35.43;99558.81;7266942;19;154212;-60
2023/01/18 13:28:39;;;;;;;;;;;;;;;20.13;35.02;99557.50;7266159;19;153368;-61